Time;durP1;ratioP1;P1;durP2;ratioP2;P2;SDS_P1;SDS_P2;PMS_P1;PMS_P2;Temp;Humidity;BMP_temperature;BMP_pressure;BME280_temperature;BME280_humidity;BME280_pressure;Samples;Min_cycle;Max_cycle;Signal;HPM_P1;HPM_P2
2021/08/27 00:01:54;;;;;;;4.60;3.07;;;13.60;1.00;;;;;;5089015;28;20384;-82
2021/08/27 00:04:24;;;;;;;7.30;3.00;;;13.50;1.00;;;;;;5073353;28;20190;-81
2021/08/27 00:06:54;;;;;;;9.00;3.00;;;13.60;1.00;;;;;;5073453;28;20384;-81
2021/08/27 00:09:36;;;;;;;4.17;3.03;;;13.50;1.00;;;;;;5073241;28;20397;-81
2021/08/27 00:12:12;;;;;;;5.10;2.60;;;13.40;1.00;;;;;;5073355;28;20471;-81
2021/08/27 00:14:38;;;;;;;4.20;2.67;;;13.30;1.00;;;;;;5073608;28;20405;-79
2021/08/27 00:17:04;;;;;;;4.60;2.80;;;13.20;1.00;;;;;;5073292;28;20507;-79
2021/08/27 00:19:48;;;;;;;3.80;3.10;;;13.10;1.00;;;;;;5067907;28;20183;-79
2021/08/27 00:22:26;;;;;;;13.90;3.20;;;13.20;1.00;;;;;;5053254;28;20844;-79
2021/08/27 00:25:24;;;;;;;3.87;2.83;;;13.20;1.00;;;;;;5053738;28;20489;-79
2021/08/27 00:28:02;;;;;;;6.13;3.40;;;13.00;1.00;;;;;;5058715;28;20406;-80
2021/08/27 00:30:29;;;;;;;5.03;3.10;;;13.00;1.00;;;;;;5077106;28;20492;-81
2021/08/27 00:33:06;;;;;;;13.63;2.80;;;13.00;1.00;;;;;;5077185;28;20865;-81
2021/08/27 00:35:48;;;;;;;5.07;2.90;;;12.90;1.00;;;;;;5077030;28;20385;-81
2021/08/27 00:38:24;;;;;;;6.90;2.80;;;12.90;1.00;;;;;;5076802;28;20884;-80
2021/08/27 00:41:30;;;;;;;5.53;3.27;;;12.80;1.00;;;;;;5077021;28;20466;-81
2021/08/27 00:44:06;;;;;;;7.03;3.37;;;12.80;1.00;;;;;;5077216;28;20420;-81
2021/08/27 00:46:36;;;;;;;5.10;3.50;;;12.70;1.00;;;;;;5075486;28;20417;-81
2021/08/27 00:49:06;;;;;;;4.23;3.27;;;12.70;1.00;;;;;;5076828;28;20414;-81
2021/08/27 00:51:36;;;;;;;7.43;3.60;;;12.70;1.00;;;;;;5075551;28;20390;-81
2021/08/27 00:54:02;;;;;;;4.27;3.03;;;12.60;1.00;;;;;;5071665;28;20421;-81
2021/08/27 00:56:31;;;;;;;13.90;3.53;;;12.60;1.00;;;;;;5067403;28;20424;-81
2021/08/27 00:59:00;;;;;;;10.30;3.13;;;12.60;1.00;;;;;;5076905;28;20152;-80
2021/08/27 01:01:48;;;;;;;5.67;3.63;;;12.60;1.00;;;;;;5076870;28;20511;-80
2021/08/27 01:04:14;;;;;;;6.03;3.20;;;12.50;1.00;;;;;;5075000;28;20937;-80
2021/08/27 01:06:54;;;;;;;3.43;3.10;;;12.50;1.00;;;;;;5076606;28;20393;-79
2021/08/27 01:09:51;;;;;;;4.50;2.60;;;12.50;1.00;;;;;;5076369;28;20398;-79
2021/08/27 01:12:35;;;;;;;4.27;3.00;;;12.40;1.00;;;;;;5061349;28;20419;-79
2021/08/27 01:15:29;;;;;;;4.27;2.90;;;12.40;1.00;;;;;;5061542;28;20414;-81
2021/08/27 01:18:26;;;;;;;10.07;3.03;;;12.40;1.00;;;;;;5054953;28;20924;-82
2021/08/27 01:21:16;;;;;;;4.43;2.93;;;12.40;1.00;;;;;;5068267;28;20836;-81
2021/08/27 01:23:52;;;;;;;5.17;3.40;;;12.30;1.00;;;;;;5074887;28;20413;-81
2021/08/27 01:26:36;;;;;;;10.93;3.13;;;12.30;1.00;;;;;;5076472;28;20439;-81
2021/08/27 01:29:07;;;;;;;3.50;3.13;;;12.30;1.00;;;;;;5065052;28;20448;-81
2021/08/27 01:32:16;;;;;;;8.10;3.50;;;12.30;1.00;;;;;;5073882;28;20844;-81
2021/08/27 01:34:50;;;;;;;7.10;3.47;;;12.20;1.00;;;;;;5034199;28;20585;-82
2021/08/27 01:37:45;;;;;;;5.80;3.00;;;12.20;1.00;;;;;;5032924;28;20417;-81
2021/08/27 01:41:00;;;;;;;3.80;2.97;;;12.10;1.00;;;;;;5017187;28;20464;-81
2021/08/27 01:44:06;;;;;;;5.27;2.57;;;12.10;1.00;;;;;;5030674;28;20424;-79
2021/08/27 01:46:56;;;;;;;4.77;3.03;;;12.10;1.00;;;;;;5014025;28;20415;-81
2021/08/27 01:50:06;;;;;;;3.60;2.80;;;12.10;1.00;;;;;;5024619;28;20434;-81
2021/08/27 01:52:50;;;;;;;6.90;3.50;;;12.10;1.00;;;;;;5014146;28;20427;-81
2021/08/27 01:55:25;;;;;;;5.47;3.30;;;12.10;1.00;;;;;;5031984;28;20404;-81
2021/08/27 01:58:05;;;;;;;16.80;3.40;;;12.10;1.00;;;;;;5033536;28;20482;-81
2021/08/27 02:00:43;;;;;;;5.20;3.00;;;12.10;1.00;;;;;;5016759;28;20447;-79
2021/08/27 02:03:20;;;;;;;5.03;3.30;;;12.10;1.00;;;;;;5033460;28;20866;-79
2021/08/27 02:06:13;;;;;;;15.17;3.97;;;12.20;1.00;;;;;;5033415;28;20951;-79
2021/08/27 02:08:55;;;;;;;3.60;3.10;;;12.20;1.00;;;;;;5033112;28;20469;-79
2021/08/27 02:11:42;;;;;;;8.53;3.47;;;12.20;1.00;;;;;;5048480;28;20414;-79
2021/08/27 02:14:09;;;;;;;5.40;3.20;;;12.20;1.00;;;;;;5055541;28;20409;-79
2021/08/27 02:16:36;;;;;;;8.60;3.30;;;12.30;1.00;;;;;;5055668;28;20387;-79
2021/08/27 02:19:48;;;;;;;3.10;2.80;;;12.30;1.00;;;;;;5054926;28;20391;-79
2021/08/27 02:22:21;;;;;;;5.50;3.30;;;12.20;1.00;;;;;;5055408;28;20448;-79
2021/08/27 02:24:56;;;;;;;6.17;3.30;;;12.20;1.00;;;;;;5055041;28;20412;-79
2021/08/27 02:27:48;;;;;;;4.50;3.00;;;12.20;1.00;;;;;;5058371;28;20428;-78
2021/08/27 02:30:31;;;;;;;3.87;2.93;;;12.20;1.00;;;;;;5055428;28;20409;-79
2021/08/27 02:33:01;;;;;;;5.90;2.90;;;12.20;1.00;;;;;;5054861;28;20498;-79
2021/08/27 02:35:48;;;;;;;6.80;3.13;;;12.30;1.00;;;;;;5055096;28;20892;-80
2021/08/27 02:38:27;;;;;;;7.10;3.10;;;12.20;1.00;;;;;;5055143;28;20412;-79
2021/08/27 02:41:42;;;;;;;3.33;3.03;;;12.30;1.00;;;;;;5054648;28;20393;-79
2021/08/27 02:44:08;;;;;;;5.37;3.67;;;12.30;1.00;;;;;;5055278;28;20438;-80
2021/08/27 02:46:42;;;;;;;6.00;3.00;;;12.30;1.00;;;;;;5054761;28;20395;-81
2021/08/27 02:49:13;;;;;;;8.53;3.30;;;12.30;1.00;;;;;;5054342;28;20494;-81
2021/08/27 02:52:11;;;;;;;5.87;3.13;;;12.40;1.00;;;;;;5054538;28;20387;-82
2021/08/27 02:55:14;;;;;;;4.53;3.73;;;12.50;1.00;;;;;;5054407;28;20456;-81
2021/08/27 02:57:47;;;;;;;8.20;3.40;;;12.60;1.00;;;;;;4974157;28;20403;-81
2021/08/27 03:00:38;;;;;;;4.17;3.50;;;12.70;1.00;;;;;;4973938;28;20472;-79
2021/08/27 03:03:22;;;;;;;7.23;3.77;;;12.70;1.00;;;;;;4981464;28;20420;-79
2021/08/27 03:05:49;;;;;;;12.13;3.67;;;12.80;1.00;;;;;;4992759;28;20464;-79
2021/08/27 03:08:21;;;;;;;5.10;3.50;;;12.70;1.00;;;;;;4992772;28;20876;-79
2021/08/27 03:11:12;;;;;;;8.13;3.60;;;12.70;1.00;;;;;;4992795;28;20423;-79
2021/08/27 03:13:59;;;;;;;7.80;3.60;;;12.70;1.00;;;;;;4992824;28;20814;-79
2021/08/27 03:16:41;;;;;;;10.37;4.53;;;12.70;1.00;;;;;;4992966;28;20421;-79
2021/08/27 03:19:27;;;;;;;4.67;3.37;;;12.80;1.00;;;;;;4992673;28;20495;-79
2021/08/27 03:22:25;;;;;;;5.27;3.10;;;12.80;1.00;;;;;;4992654;28;20926;-79
2021/08/27 03:25:07;;;;;;;5.20;3.43;;;12.80;1.00;;;;;;4992459;28;20475;-79
2021/08/27 03:27:41;;;;;;;4.17;3.37;;;12.80;1.00;;;;;;4992479;28;20503;-79
2021/08/27 03:30:30;;;;;;;6.73;3.43;;;12.70;1.00;;;;;;4992820;28;20464;-79
2021/08/27 03:33:10;;;;;;;4.67;3.27;;;12.70;1.00;;;;;;5053825;28;20860;-79
2021/08/27 03:35:47;;;;;;;5.20;3.33;;;12.60;1.00;;;;;;5069255;28;20434;-79
2021/08/27 03:38:36;;;;;;;4.70;3.53;;;12.60;1.00;;;;;;5054028;28;20447;-79
2021/08/27 03:41:07;;;;;;;4.63;3.17;;;12.60;1.00;;;;;;5067382;28;20401;-79
2021/08/27 03:43:55;;;;;;;8.33;3.27;;;12.50;1.00;;;;;;5073964;28;20381;-79
2021/08/27 03:46:37;;;;;;;4.63;3.20;;;12.40;1.00;;;;;;5073845;28;20429;-81
2021/08/27 03:49:12;;;;;;;8.20;3.30;;;12.40;1.00;;;;;;5073725;28;20394;-81
2021/08/27 03:52:01;;;;;;;7.70;3.23;;;12.20;1.00;;;;;;5073531;28;20933;-81
2021/08/27 03:54:37;;;;;;;8.90;3.33;;;12.20;1.00;;;;;;5073685;28;20421;-81
2021/08/27 03:57:07;;;;;;;7.77;3.53;;;12.10;1.00;;;;;;5053519;28;20497;-81
2021/08/27 03:59:43;;;;;;;4.00;3.60;;;12.10;1.00;;;;;;5052888;28;20390;-81
2021/08/27 04:02:27;;;;;;;4.73;3.67;;;12.10;1.00;;;;;;5053346;28;20390;-81
2021/08/27 04:05:24;;;;;;;5.60;3.00;;;12.00;1.00;;;;;;5053358;28;20929;-81
2021/08/27 04:08:00;;;;;;;3.73;3.03;;;12.00;1.00;;;;;;5053184;28;20398;-81
2021/08/27 04:10:26;;;;;;;4.67;3.37;;;12.00;1.00;;;;;;5053336;28;20383;-81
2021/08/27 04:12:54;;;;;;;18.00;2.80;;;12.00;1.00;;;;;;5053201;28;20384;-81
2021/08/27 04:15:24;;;;;;;5.10;3.47;;;12.00;1.00;;;;;;5052422;28;20555;-80
2021/08/27 04:17:50;;;;;;;5.30;3.53;;;12.00;1.00;;;;;;5053308;28;20491;-79
2021/08/27 04:20:16;;;;;;;6.83;3.30;;;12.00;1.00;;;;;;5053467;28;20481;-79
2021/08/27 04:22:42;;;;;;;7.10;3.50;;;12.00;1.00;;;;;;5065420;28;20173;-79
2021/08/27 04:25:08;;;;;;;6.57;3.70;;;11.90;1.00;;;;;;5073873;28;20195;-87
2021/08/27 04:27:42;;;;;;;12.20;4.00;;;11.90;1.00;;;;;;5067316;28;20406;-87
2021/08/27 04:30:30;;;;;;;3.80;3.40;;;11.90;1.00;;;;;;5054211;28;20519;-86
2021/08/27 04:32:56;;;;;;;5.20;3.50;;;11.80;1.00;;;;;;5066405;28;20511;-86
2021/08/27 04:35:30;;;;;;;5.00;3.20;;;11.80;1.00;;;;;;5069368;28;20468;-82
2021/08/27 04:38:24;;;;;;;4.27;3.00;;;12.00;1.00;;;;;;5071350;28;20171;-82
2021/08/27 04:40:50;;;;;;;6.83;3.00;;;11.90;1.00;;;;;;5067023;28;20425;-81
2021/08/27 04:43:15;;;;;;;7.40;3.20;;;11.80;1.00;;;;;;5077744;28;20418;-81
2021/08/27 04:45:41;;;;;;;5.90;3.33;;;11.90;1.00;;;;;;5058055;28;20229;-79
2021/08/27 04:48:07;;;;;;;3.43;3.13;;;12.00;1.00;;;;;;5064265;28;20534;-79
2021/08/27 04:51:00;;;;;;;8.67;3.23;;;12.10;1.00;;;;;;5072940;28;20178;-79
2021/08/27 04:53:30;;;;;;;3.10;2.80;;;12.10;1.00;;;;;;5069391;28;20195;-79
2021/08/27 04:56:42;;;;;;;4.73;3.80;;;12.10;1.00;;;;;;5055443;28;20804;-79
2021/08/27 04:59:12;;;;;;;6.70;3.30;;;12.20;1.00;;;;;;5065071;28;20492;-81
2021/08/27 05:01:54;;;;;;;6.27;3.77;;;12.20;1.00;;;;;;5053593;28;20429;-83
2021/08/27 05:04:30;;;;;;;4.37;3.43;;;12.30;1.00;;;;;;5055365;28;20550;-86
2021/08/27 05:06:56;;;;;;;4.20;3.17;;;12.30;1.00;;;;;;5061109;28;20421;-81
2021/08/27 05:09:36;;;;;;;4.30;3.90;;;12.40;1.00;;;;;;5072587;28;20504;-85
2021/08/27 05:12:32;;;;;;;5.93;3.20;;;12.60;1.00;;;;;;5074293;28;20516;-92
2021/08/27 05:15:12;;;;;;;6.57;3.43;;;12.60;1.00;;;;;;5063223;28;20410;-82
2021/08/27 05:17:42;;;;;;;5.90;3.67;;;12.70;1.00;;;;;;5072489;28;20416;-80
2021/08/27 05:20:54;;;;;;;9.70;3.13;;;12.70;1.00;;;;;;5072582;28;20429;-79
2021/08/27 05:23:30;;;;;;;7.93;3.27;;;12.80;1.00;;;;;;5058309;28;20418;-79
2021/08/27 05:26:12;;;;;;;5.90;3.03;;;12.80;1.00;;;;;;5058907;28;20457;-79
2021/08/27 05:29:18;;;;;;;4.57;3.30;;;13.00;1.00;;;;;;5055978;28;20954;-79
2021/08/27 05:31:48;;;;;;;8.50;3.53;;;13.10;1.00;;;;;;5055174;28;20437;-78
2021/08/27 05:34:42;;;;;;;5.00;3.13;;;13.10;1.00;;;;;;5055794;28;20500;-86
2021/08/27 05:37:18;;;;;;;8.80;3.30;;;13.20;1.00;;;;;;5057787;28;20894;-79
2021/08/27 05:39:54;;;;;;;6.30;3.60;;;13.30;1.00;;;;;;5055949;28;20393;-78
2021/08/27 05:42:30;;;;;;;10.03;3.80;;;13.40;1.00;;;;;;5055715;28;20718;-79
2021/08/27 05:44:56;;;;;;;8.07;3.93;;;13.50;1.00;;;;;;5065305;28;20432;-78
2021/08/27 05:47:24;;;;;;;11.83;3.77;;;13.50;1.00;;;;;;5055944;28;20398;-79
2021/08/27 05:49:54;;;;;;;6.30;3.60;;;13.60;1.00;;;;;;5071983;28;20174;-79
2021/08/27 05:52:25;;;;;;;9.50;3.83;;;13.70;1.00;;;;;;5069799;28;20418;-79
2021/08/27 05:54:51;;;;;;;7.07;3.83;;;13.70;1.00;;;;;;5064070;28;20418;-78
2021/08/27 05:57:17;;;;;;;8.53;4.20;;;13.70;1.00;;;;;;5075140;28;20505;-78
2021/08/27 05:59:42;;;;;;;10.60;4.80;;;13.80;1.00;;;;;;5073822;28;20174;-79
2021/08/27 06:02:12;;;;;;;7.83;4.10;;;13.90;1.00;;;;;;5068393;28;20172;-79
2021/08/27 06:04:42;;;;;;;12.70;4.60;;;14.00;1.00;;;;;;5062372;28;20454;-78
2021/08/27 06:07:25;;;;;;;11.60;4.30;;;14.20;1.00;;;;;;5060860;28;20441;-78
2021/08/27 06:09:51;;;;;;;8.27;4.10;;;14.30;1.00;;;;;;5074093;28;20433;-78
2021/08/27 06:12:18;;;;;;;7.77;3.80;;;14.40;1.00;;;;;;5063367;28;20428;-78
2021/08/27 06:15:06;;;;;;;13.90;4.10;;;14.50;1.00;;;;;;5056731;28;20445;-79
2021/08/27 06:17:54;;;;;;;19.27;3.97;;;14.60;1.00;;;;;;5053986;28;20783;-79
2021/08/27 06:20:32;;;;;;;16.83;4.07;;;14.80;1.00;;;;;;5070079;28;20507;-79
2021/08/27 06:23:06;;;;;;;4.97;3.17;;;14.90;1.00;;;;;;5058817;28;20494;-79
2021/08/27 06:25:32;;;;;;;7.03;3.50;;;14.90;1.00;;;;;;5069966;28;20468;-79
2021/08/27 06:28:13;;;;;;;6.13;4.00;;;15.00;1.00;;;;;;5055174;28;20369;-79
2021/08/27 06:30:42;;;;;;;5.33;3.90;;;15.10;1.00;;;;;;5054680;28;20437;-79
2021/08/27 06:33:08;;;;;;;9.23;4.57;;;15.20;1.00;;;;;;5055037;28;20403;-79
2021/08/27 06:35:34;;;;;;;7.20;3.77;;;15.40;1.00;;;;;;5054030;28;20405;-79
2021/08/27 06:40:46;;;;;;;4.67;3.67;;;15.50;1.00;;;;;;5053745;28;20400;-79
2021/08/27 06:43:12;;;;;;;12.40;4.20;;;15.50;1.00;;;;;;5053940;28;20394;-79
2021/08/27 06:45:38;;;;;;;8.30;4.00;;;15.70;1.00;;;;;;5054228;28;20491;-79
2021/08/27 06:48:04;;;;;;;18.00;4.50;;;15.70;1.00;;;;;;5053910;28;20398;-81
2021/08/27 06:50:29;;;;;;;5.40;3.30;;;15.80;1.00;;;;;;5067152;28;20182;-81
2021/08/27 06:52:56;;;;;;;7.97;3.63;;;15.90;1.00;;;;;;5073704;28;20745;-81
2021/08/27 06:55:23;;;;;;;13.20;4.00;;;16.00;1.00;;;;;;5073659;28;20593;-81
2021/08/27 06:57:49;;;;;;;8.30;3.80;;;16.20;1.00;;;;;;5061222;28;20856;-81
2021/08/27 07:00:18;;;;;;;5.03;3.53;;;16.10;1.00;;;;;;5054517;28;20920;-81
2021/08/27 07:06:06;;;;;;;3.97;2.97;;;16.30;1.00;;;;;;5056532;28;20457;-81
2021/08/27 07:08:42;;;;;;;4.70;3.30;;;16.30;1.00;;;;;;5053476;28;20430;-81
2021/08/27 07:11:36;;;;;;;14.37;3.60;;;16.40;1.00;;;;;;5054208;28;20458;-81
2021/08/27 07:14:30;;;;;;;10.60;2.90;;;16.30;1.00;;;;;;5057368;28;20392;-81
2021/08/27 07:16:58;;;;;;;6.20;3.10;;;16.40;1.00;;;;;;5054635;28;20468;-80
2021/08/27 07:23:06;;;;;;;14.43;3.40;;;16.50;1.00;;;;;;5053872;28;20795;-79
2021/08/27 07:25:32;;;;;;;12.93;3.10;;;16.60;1.00;;;;;;5054603;28;20529;-79
2021/08/27 07:28:13;;;;;;;9.63;3.30;;;16.60;1.00;;;;;;5054020;28;20365;-79
2021/08/27 07:30:44;;;;;;;9.90;3.10;;;16.90;1.00;;;;;;5053711;28;20443;-79
2021/08/27 07:36:31;;;;;;;10.83;3.17;;;16.90;1.00;;;;;;5053364;28;20349;-79
2021/08/27 07:39:06;;;;;;;8.93;3.00;;;17.30;1.00;;;;;;5053718;28;20407;-79
2021/08/27 07:41:36;;;;;;;5.40;3.07;;;17.30;1.00;;;;;;5053687;28;20164;-79
2021/08/27 07:44:30;;;;;;;3.50;2.70;;;17.30;1.00;;;;;;5056038;28;20408;-79
2021/08/27 07:46:59;;;;;;;6.03;3.13;;;17.40;1.00;;;;;;5064739;28;20415;-80
2021/08/27 07:49:24;;;;;;;4.60;3.60;;;17.60;1.00;;;;;;5073613;28;20382;-80
2021/08/27 07:52:12;;;;;;;5.37;3.10;;;17.70;1.00;;;;;;5073657;28;20390;-79
2021/08/27 07:54:38;;;;;;;7.03;2.50;;;17.70;1.00;;;;;;5073617;28;20164;-79
2021/08/27 07:57:40;;;;;;;8.40;3.40;;;17.60;1.00;;;;;;5073376;28;20421;-79
2021/08/27 08:00:07;;;;;;;7.63;2.80;;;17.70;1.00;;;;;;5062032;28;20254;-79
2021/08/27 08:02:33;;;;;;;6.73;2.90;;;17.70;1.00;;;;;;5053813;28;20392;-80
2021/08/27 08:05:00;;;;;;;6.87;3.13;;;17.70;1.00;;;;;;5056393;28;20474;-80
2021/08/27 08:07:26;;;;;;;5.83;3.13;;;17.70;1.00;;;;;;5071694;28;20178;-79
2021/08/27 08:09:52;;;;;;;6.77;3.13;;;17.70;1.00;;;;;;5072973;28;20419;-79
2021/08/27 08:12:17;;;;;;;7.67;2.80;;;17.70;1.00;;;;;;5063348;28;20164;-80
2021/08/27 08:14:54;;;;;;;2.93;2.60;;;17.70;1.00;;;;;;5057747;28;20663;-79
2021/08/27 08:17:24;;;;;;;7.23;3.20;;;17.70;1.00;;;;;;5077547;28;20628;-80
2021/08/27 08:20:01;;;;;;;6.07;3.07;;;17.70;1.00;;;;;;5053868;28;20450;-80
2021/08/27 08:22:26;;;;;;;4.43;2.60;;;17.70;1.00;;;;;;5070197;28;20402;-80
2021/08/27 08:24:54;;;;;;;4.20;2.77;;;17.70;1.00;;;;;;5052985;28;20454;-80
2021/08/27 08:27:20;;;;;;;14.73;3.10;;;17.70;1.00;;;;;;5053227;28;20170;-80
2021/08/27 08:29:48;;;;;;;5.80;2.57;;;17.80;1.00;;;;;;5058892;28;20441;-80
2021/08/27 08:32:14;;;;;;;7.77;3.20;;;17.90;1.00;;;;;;5063929;28;20231;-80
2021/08/27 08:34:42;;;;;;;6.03;2.20;;;17.90;1.00;;;;;;5059219;28;20803;-80
2021/08/27 08:37:24;;;;;;;6.17;2.80;;;18.00;1.00;;;;;;5053052;28;20610;-80
2021/08/27 08:39:54;;;;;;;4.20;2.73;;;18.30;1.00;;;;;;5051608;28;20428;-80
2021/08/27 08:42:24;;;;;;;6.03;2.30;;;18.40;1.00;;;;;;5064126;28;20391;-80
2021/08/27 08:45:01;;;;;;;9.53;2.53;;;18.60;1.00;;;;;;5053185;28;20866;-80
2021/08/27 08:47:32;;;;;;;8.73;2.87;;;18.60;1.00;;;;;;5074919;28;20757;-80
2021/08/27 08:50:07;;;;;;;4.53;2.83;;;18.60;1.00;;;;;;5076804;28;20450;-79
2021/08/27 08:52:43;;;;;;;4.50;2.70;;;18.70;1.00;;;;;;5069714;28;20378;-79
2021/08/27 08:55:13;;;;;;;7.50;2.80;;;18.70;1.00;;;;;;5056775;28;20402;-79
2021/08/27 08:57:42;;;;;;;5.87;2.57;;;18.80;1.00;;;;;;5056527;28;20436;-79
2021/08/27 09:00:24;;;;;;;6.80;2.27;;;19.00;1.00;;;;;;5056743;28;20388;-79
2021/08/27 09:02:50;;;;;;;14.40;2.90;;;18.90;1.00;;;;;;5064101;28;20434;-79
2021/08/27 09:05:36;;;;;;;11.13;3.10;;;;;;;;;;5075275;28;20461;-79
2021/08/27 09:08:43;;;;;;;4.93;2.70;;;18.60;1.00;;;;;;5076213;28;20172;-79
2021/08/27 09:11:36;;;;;;;3.53;2.20;;;18.60;1.00;;;;;;5033812;28;20410;-79
2021/08/27 09:14:06;;;;;;;5.93;3.57;;;18.60;1.00;;;;;;5031743;28;20478;-79
2021/08/27 09:17:05;;;;;;;15.93;2.73;;;18.60;1.00;;;;;;5034278;28;20755;-85
2021/08/27 09:20:08;;;;;;;3.37;2.50;;;18.70;1.00;;;;;;5011292;28;20442;-80
2021/08/27 09:22:54;;;;;;;2.93;2.50;;;19.00;1.00;;;;;;4957468;28;20478;-80
2021/08/27 09:25:23;;;;;;;3.37;2.40;;;19.20;1.00;;;;;;4951793;28;20504;-80
2021/08/27 09:28:24;;;;;;;4.83;3.03;;;19.20;1.00;;;;;;4951777;29;20464;-80
2021/08/27 09:30:55;;;;;;;4.40;2.70;;;19.40;1.00;;;;;;4953623;28;20452;-80
2021/08/27 09:33:34;;;;;;;5.10;2.80;;;19.60;1.00;;;;;;4956128;29;20426;-79
2021/08/27 09:36:10;;;;;;;3.77;2.67;;;19.60;1.00;;;;;;4955858;29;20453;-79
2021/08/27 09:38:39;;;;;;;8.00;2.50;;;19.90;1.00;;;;;;4955067;29;20433;-80
2021/08/27 09:41:12;;;;;;;2.90;2.30;;;20.10;1.00;;;;;;4955725;29;20583;-81
2021/08/27 09:43:44;;;;;;;6.47;2.33;;;20.10;1.00;;;;;;4955658;29;20498;-79
2021/08/27 09:46:37;;;;;;;7.60;2.40;;;20.00;1.00;;;;;;4973958;28;20503;-79
2021/08/27 09:49:39;;;;;;;3.60;2.20;;;20.10;1.00;;;;;;4974687;28;20424;-79
2021/08/27 09:52:10;;;;;;;4.00;2.40;;;20.00;1.00;;;;;;4918859;29;20423;-79
2021/08/27 09:54:43;;;;;;;3.30;2.60;;;20.00;1.00;;;;;;4936208;29;20435;-79
2021/08/27 09:57:36;;;;;;;4.20;2.23;;;19.90;1.00;;;;;;4978310;28;20427;-79
2021/08/27 10:00:17;;;;;;;5.80;2.50;;;19.80;1.00;;;;;;5013589;28;20417;-79
2021/08/27 10:03:22;;;;;;;5.93;2.70;;;19.90;1.00;;;;;;5013493;28;20408;-79
2021/08/27 10:06:06;;;;;;;8.70;3.23;;;19.90;1.00;;;;;;5013262;28;20455;-79
2021/08/27 10:08:36;;;;;;;3.00;2.60;;;20.00;1.00;;;;;;4996396;28;20443;-79
2021/08/27 10:11:22;;;;;;;5.93;2.90;;;20.10;1.00;;;;;;5013509;28;20484;-79
2021/08/27 10:14:01;;;;;;;6.53;2.53;;;20.00;1.00;;;;;;5013330;28;20423;-79
2021/08/27 10:16:31;;;;;;;20.67;3.47;;;19.90;1.00;;;;;;5013553;28;20486;-79
2021/08/27 10:19:12;;;;;;;5.23;2.63;;;19.90;1.00;;;;;;4993718;28;20503;-79
2021/08/27 10:21:51;;;;;;;4.23;2.87;;;20.10;1.00;;;;;;5013414;28;20424;-79
2021/08/27 10:24:31;;;;;;;4.87;2.90;;;20.40;1.00;;;;;;5013100;28;20423;-79
2021/08/27 10:27:09;;;;;;;5.13;3.20;;;20.20;1.00;;;;;;5065838;28;20421;-79
2021/08/27 10:29:50;;;;;;;8.37;3.10;;;20.30;1.00;;;;;;5054764;28;20864;-80
2021/08/27 10:32:38;;;;;;;3.10;2.80;;;20.20;1.00;;;;;;5054010;28;20446;-79
2021/08/27 10:35:07;;;;;;;3.13;2.83;;;20.00;1.00;;;;;;5058555;28;20640;-79
2021/08/27 10:38:01;;;;;;;4.43;3.30;;;19.80;1.00;;;;;;5061069;28;20395;-79
2021/08/27 10:40:29;;;;;;;3.77;2.90;;;19.70;1.00;;;;;;5054612;28;20484;-79
2021/08/27 10:42:57;;;;;;;8.50;3.47;;;19.50;1.00;;;;;;5062814;28;20440;-79
2021/08/27 10:45:40;;;;;;;8.80;4.43;;;19.50;1.00;;;;;;5070483;28;20450;-82
2021/08/27 10:48:15;;;;;;;6.13;3.37;;;19.20;1.00;;;;;;5070995;28;20473;-81
2021/08/27 10:50:46;;;;;;;3.83;3.43;;;19.10;1.00;;;;;;5073051;28;20435;-80
2021/08/27 10:53:40;;;;;;;5.30;4.03;;;19.10;1.00;;;;;;5057821;28;20470;-79
2021/08/27 10:56:08;;;;;;;4.00;3.60;;;19.30;1.00;;;;;;5061818;28;20531;-79
2021/08/27 10:58:55;;;;;;;5.53;3.40;;;19.50;1.00;;;;;;5064363;28;20417;-79
2021/08/27 11:01:33;;;;;;;5.37;4.00;;;19.60;1.00;;;;;;5064088;28;20924;-79
2021/08/27 11:04:28;;;;;;;11.73;3.50;;;19.70;1.00;;;;;;5056657;28;20412;-79
2021/08/27 11:06:54;;;;;;;5.33;3.47;;;19.90;1.00;;;;;;5057440;28;20425;-79
2021/08/27 11:09:31;;;;;;;5.77;3.77;;;20.20;1.00;;;;;;5053703;28;20876;-79
2021/08/27 11:12:13;;;;;;;4.50;3.50;;;20.20;1.00;;;;;;5054095;28;20424;-79
2021/08/27 11:15:16;;;;;;;10.97;4.10;;;20.30;1.00;;;;;;5054183;28;20416;-79
2021/08/27 11:18:02;;;;;;;6.30;3.67;;;20.40;1.00;;;;;;5071220;28;20483;-79
2021/08/27 11:20:31;;;;;;;6.30;3.97;;;20.60;1.00;;;;;;5063856;28;20440;-80
2021/08/27 11:23:18;;;;;;;10.03;4.10;;;20.70;1.00;;;;;;5084505;28;20436;-80
2021/08/27 11:26:24;;;;;;;5.00;3.87;;;21.00;1.00;;;;;;5071183;28;20427;-79
2021/08/27 11:29:27;;;;;;;5.47;3.77;;;20.90;1.00;;;;;;5058013;28;20505;-80
2021/08/27 11:31:54;;;;;;;4.43;3.67;;;21.20;1.00;;;;;;5070247;28;20444;-80
2021/08/27 11:35:00;;;;;;;7.50;4.03;;;21.20;1.00;;;;;;5073880;28;20429;-80
2021/08/27 11:38:18;;;;;;;4.37;3.83;;;21.20;1.00;;;;;;5059544;28;20516;-80
2021/08/27 11:40:49;;;;;;;4.83;3.83;;;21.40;1.00;;;;;;5073838;28;20429;-81
2021/08/27 11:43:15;;;;;;;10.13;5.30;;;21.50;1.00;;;;;;5072710;28;20493;-81
2021/08/27 11:45:42;;;;;;;9.23;6.37;;;21.50;1.00;;;;;;5072033;28;20470;-80
2021/08/27 11:48:42;;;;;;;7.70;4.03;;;21.50;1.00;;;;;;5073695;28;20152;-80
2021/08/27 11:51:16;;;;;;;8.23;3.97;;;21.70;1.00;;;;;;5074360;28;20395;-80
2021/08/27 11:54:17;;;;;;;7.43;4.40;;;21.70;1.00;;;;;;5073799;28;20424;-80
2021/08/27 11:56:52;;;;;;;9.23;3.97;;;21.60;1.00;;;;;;5053549;28;20396;-80
2021/08/27 11:59:37;;;;;;;4.83;4.20;;;21.50;1.00;;;;;;5053333;28;20419;-80
2021/08/27 12:02:30;;;;;;;8.13;3.70;;;21.00;1.00;;;;;;5052011;28;20430;-80
2021/08/27 12:04:58;;;;;;;6.03;3.80;;;21.00;1.00;;;;;;5053373;28;20479;-80
2021/08/27 12:07:28;;;;;;;4.60;3.63;;;20.80;1.00;;;;;;5053566;28;20792;-79
2021/08/27 12:10:11;;;;;;;5.93;4.37;;;20.80;1.00;;;;;;5053462;28;20387;-79
2021/08/27 12:12:40;;;;;;;4.37;3.57;;;20.90;1.00;;;;;;5069000;28;20422;-79
2021/08/27 12:15:54;;;;;;;7.07;4.43;;;21.00;1.00;;;;;;5062534;28;20425;-80
2021/08/27 12:18:34;;;;;;;4.03;3.50;;;21.20;1.00;;;;;;5073293;28;20421;-80
2021/08/27 12:21:00;;;;;;;5.03;4.03;;;21.20;1.00;;;;;;5073536;28;20402;-80
2021/08/27 12:23:26;;;;;;;7.13;3.90;;;21.20;1.00;;;;;;5057379;28;20456;-75
2021/08/27 12:25:59;;;;;;;5.30;3.20;;;21.30;1.00;;;;;;5057662;28;20224;-74
2021/08/27 12:28:34;;;;;;;7.40;3.70;;;21.40;1.00;;;;;;5064422;28;20496;-80
2021/08/27 12:31:01;;;;;;;5.90;3.60;;;21.70;1.00;;;;;;5057390;28;20418;-78
2021/08/27 12:33:49;;;;;;;5.53;3.80;;;21.90;1.00;;;;;;5060868;28;20402;-79
2021/08/27 12:36:19;;;;;;;6.10;3.60;;;22.10;1.00;;;;;;5077025;28;20476;-80
2021/08/27 12:38:49;;;;;;;4.60;3.50;;;22.10;1.00;;;;;;5071421;28;20813;-79
2021/08/27 12:41:42;;;;;;;7.50;3.90;;;21.90;1.00;;;;;;5077046;28;20471;-80
2021/08/27 12:44:09;;;;;;;4.67;3.07;;;21.70;1.00;;;;;;5092576;28;20427;-80
2021/08/27 12:46:39;;;;;;;4.20;3.17;;;21.60;1.00;;;;;;5076874;28;20473;-80
2021/08/27 12:49:24;;;;;;;6.03;3.67;;;21.40;1.00;;;;;;5075813;28;20478;-79
2021/08/27 12:51:58;;;;;;;8.50;3.13;;;21.40;1.00;;;;;;5077419;28;20405;-79
2021/08/27 12:54:25;;;;;;;6.23;3.70;;;21.50;1.00;;;;;;5076951;28;20475;-80
2021/08/27 12:57:03;;;;;;;6.13;3.00;;;21.50;1.00;;;;;;5075496;28;20597;-80
2021/08/27 12:59:31;;;;;;;3.87;3.57;;;21.40;1.00;;;;;;5076818;28;20386;-80
2021/08/27 13:02:17;;;;;;;3.67;2.60;;;21.20;1.00;;;;;;5076634;28;20383;-80
2021/08/27 13:04:51;;;;;;;15.53;3.60;;;21.00;1.00;;;;;;5076520;28;20954;-79
2021/08/27 13:07:32;;;;;;;8.43;3.83;;;20.70;1.00;;;;;;5056882;28;20385;-79
2021/08/27 13:10:13;;;;;;;3.77;3.27;;;20.40;1.00;;;;;;5057237;28;20447;-80
2021/08/27 13:13:32;;;;;;;3.53;3.10;;;20.30;1.00;;;;;;5056411;28;20878;-80
2021/08/27 13:16:16;;;;;;;4.67;3.07;;;20.20;1.00;;;;;;5014617;28;20435;-80
2021/08/27 13:18:55;;;;;;;7.10;3.33;;;20.10;1.00;;;;;;5014167;28;20405;-79
2021/08/27 13:21:34;;;;;;;8.33;3.17;;;20.10;1.00;;;;;;5014032;28;20860;-81
2021/08/27 13:24:12;;;;;;;8.30;3.10;;;20.00;1.00;;;;;;5013849;28;20422;-80
2021/08/27 13:27:06;;;;;;;3.30;2.83;;;20.00;1.00;;;;;;5012917;28;21004;-80
2021/08/27 13:29:32;;;;;;;3.23;2.93;;;20.30;1.00;;;;;;5013887;28;20423;-80
2021/08/27 13:31:58;;;;;;;3.03;2.43;;;20.40;1.00;;;;;;5013220;28;20836;-80
2021/08/27 13:34:24;;;;;;;7.13;2.93;;;20.40;1.00;;;;;;5013407;28;20406;-80
2021/08/27 13:37:00;;;;;;;9.77;3.30;;;20.30;1.00;;;;;;5014573;28;20181;-80
2021/08/27 13:39:43;;;;;;;5.30;3.00;;;20.40;1.00;;;;;;5014277;28;20774;-80
2021/08/27 13:42:30;;;;;;;3.80;2.93;;;20.20;1.00;;;;;;5013809;28;20885;-79
2021/08/27 13:45:14;;;;;;;6.40;3.30;;;20.10;1.00;;;;;;5014222;28;20517;-80
2021/08/27 13:48:00;;;;;;;3.03;2.80;;;20.10;1.00;;;;;;5014201;28;20407;-80
2021/08/27 13:50:27;;;;;;;3.30;2.60;;;20.00;1.00;;;;;;5015477;28;20407;-80
2021/08/27 13:53:06;;;;;;;5.80;3.17;;;19.90;1.00;;;;;;5055976;28;20873;-82
2021/08/27 13:55:43;;;;;;;3.77;3.20;;;19.80;1.00;;;;;;5055684;28;20406;-82
2021/08/27 13:58:09;;;;;;;8.40;3.80;;;19.80;1.00;;;;;;5055772;28;20429;-82
2021/08/27 14:00:48;;;;;;;3.80;3.30;;;19.80;1.00;;;;;;5058196;28;20409;-82
2021/08/27 14:03:19;;;;;;;4.07;3.50;;;19.80;1.00;;;;;;5075258;28;20376;-82
2021/08/27 14:05:54;;;;;;;3.57;3.27;;;20.00;1.00;;;;;;5075410;28;20441;-82
2021/08/27 14:08:25;;;;;;;5.90;3.73;;;20.00;1.00;;;;;;5075603;28;20944;-82